Terminal Aerodrome Forecast
Issued by NWS

Home | Current Version | Previous Version | Text Only | Print | Product List | Glossary On
Versions: 1 2 3 4 5 6 7 8 9 10 11 12 13 14 15 16 17 18 19 20 21 22 23 24 25 26 27 28 29 30 31 32 33 34 35 36 37 38 39 40 41 42 43 44 45 46 47 48 49 50
000
FTUS45 KBOU 280714 AAA
TAFAPA
TAF AMD
KAPA 280714Z 2807/2906 20012G20KT P6SM FEW050 SCT120 BKN200
     FM280900 22010KT P6SM SCT050 SCT120 BKN200
     FM281200 30007KT P6SM SCT010 SCT060 BKN200
      TEMPO 2813/2815 BKN010
     FM281600 VRB05KT P6SM SCT030 SCT120
     FM281900 10008KT P6SM SCT070 BKN110
      TEMPO 2822/2902 VRB20G30KT -TSRA BKN050CB
     FM290300 15014KT P6SM SCT070 BKN120=

USA.gov is the U.S. government's official web portal to all federal, state and local government web resources and services.